Mount Horeb, WI (53572)

7:01 PM CST on February 09, 2016 (GMT -0600)
Maple Dr. | | Change Station
CLOSE
Current Station
Personal Weather Station
Location: MT HOREB, WI
Elevation: 1181 ft
Nearby Weather Stations

Elev 1181 ft 43.00 °N, 89.74 °W | Updated 22 seconds ago

Mostly Cloudy
Mostly Cloudy
10.9 °F
Feels Like -1 °F
N
7.7
Wind Variable Wind from NW
Gusts 13.1 mph

Today
High -- | Low -- °F
--% Chance of Precip.
Yesterday
High -- | Low -- °F
Precip. -- in
Pressure 29.97 in
Visibility 10.0 miles
Clouds Overcast 3200 ft
Windchill -1 °F
Dew Point 1 °F
Humidity 64%
Rainfall 0.00 in
Snow Depth Not available.
7:05 AM 5:21 PM
Waxing Crescent, 3% visible
METAR KC29 100055Z AUTO 31014G19KT 10SM OVC032 M10/M16 A2997 RMK AO1 T10961160
Pressure 29.97 in
Visibility 10.0 miles
Clouds Overcast 3200 ft
Windchill -1 °F
Dew Point 1 °F
Humidity 64%
Rainfall 0.00 in
Snow Depth Not available.
7:05 AM 5:21 PM
Waxing Crescent, 3% visible
METAR KC29 100055Z AUTO 31014G19KT 10SM OVC032 M10/M16 A2997 RMK AO1 T10961160

10-Day Weather Forecast

Almanac

Astronomy

Feb. 09, 2016 Rise Set
Actual Time
Civil Twilight
Nautical Twilight
Astronomical Twilight
Moon
Length of Visible Light
Length of Day
Tomorrow will be .
, % of the Moon is Illuminated

Today's Extremes

State Highs State Lows

Community

WunderPhotos

Upload Photos

1,891,752 photos uploaded!

WunderBlog® & News

Nearby

Air Quality

  Air Quality AQ Index Pollutant
Not available.

Snow Depth

Station Depth Elevation

Earthquake Activity

City Distance Mag. Time & Date
Minimum magnitude displayed is 2.5.

Coastal Water Temperatures

Place Temperature

Stations

Nearby Weather Stations

Station Location Temp. Windchill Dew Point Humidity Wind Precip. Elev Updated Type
                   

Watches & Warnings

There are currently no watches in effect.